Time;durP1;ratioP1;P1;durP2;ratioP2;P2;SDS_P1;SDS_P2;PMS_P1;PMS_P2;Temp;Humidity;BMP_temperature;BMP_pressure;BME280_temperature;BME280_humidity;BME280_pressure;Samples;Min_cycle;Max_cycle;Signal;HPM_P1;HPM_P2
2021/10/01 00:02:07;;;;;;;15.43;6.92;;;;;;;6.71;77.77;102422.39;1681741;84;21594;-82
2021/10/01 00:04:36;;;;;;;11.33;6.60;;;;;;;6.68;77.71;102420.48;1681870;84;21677;-82
2021/10/01 00:07:02;;;;;;;14.47;6.45;;;;;;;6.64;77.70;102430.63;1681759;85;23986;-81
2021/10/01 00:09:29;;;;;;;14.43;7.22;;;;;;;6.60;77.77;102429.50;1646251;86;21121;-82
2021/10/01 00:11:59;;;;;;;12.35;6.97;;;;;;;6.57;77.82;102432.83;1646219;86;21658;-82
2021/10/01 00:14:26;;;;;;;14.00;7.58;;;;;;;6.54;77.78;102430.41;1681505;84;21090;-81
2021/10/01 00:16:53;;;;;;;16.40;7.40;;;;;;;6.52;77.86;102428.08;1629476;87;21159;-82
2021/10/01 00:19:24;;;;;;;12.47;6.97;;;;;;;6.49;77.89;102422.63;1681731;84;21898;-82
2021/10/01 00:21:49;;;;;;;10.10;5.97;;;;;;;6.47;77.97;102420.31;1680957;84;21078;-82
2021/10/01 00:24:16;;;;;;;13.43;7.10;;;;;;;6.45;78.02;102422.81;1646076;86;21137;-82
2021/10/01 00:26:43;;;;;;;13.80;7.10;;;;;;;6.45;78.10;102426.74;1646076;87;21108;-82
2021/10/01 00:29:10;;;;;;;15.10;7.33;;;;;;;6.43;78.11;102423.12;1681460;85;21524;-82
2021/10/01 00:31:40;;;;;;;11.22;6.72;;;;;;;6.44;78.13;102427.56;1663569;85;22606;-82
2021/10/01 00:34:06;;;;;;;13.05;7.08;;;;;;;6.45;78.19;102421.92;1673836;84;21151;-82
2021/10/01 00:36:33;;;;;;;20.08;7.65;;;;;;;6.42;78.12;102420.91;1673527;84;21094;-82
2021/10/01 00:39:00;;;;;;;13.32;6.70;;;;;;;6.38;78.14;102424.13;1673781;84;21094;-82
2021/10/01 00:41:27;;;;;;;15.00;7.25;;;;;;;6.36;78.15;102418.26;1673895;85;21670;-82
2021/10/01 00:43:54;;;;;;;15.10;7.83;;;;;;;6.32;78.12;102421.47;1673967;85;23034;-82
2021/10/01 00:46:21;;;;;;;13.08;7.28;;;;;;;6.29;78.15;102422.18;1674022;85;21089;-82
2021/10/01 00:48:48;;;;;;;13.10;7.10;;;;;;;6.28;78.20;102422.97;1673944;84;21058;-82
2021/10/01 00:51:17;;;;;;;14.50;7.75;;;;;;;6.24;78.25;102422.25;1673648;85;21632;-81
2021/10/01 00:53:44;;;;;;;15.78;7.50;;;;;;;6.23;78.37;102416.13;1673817;85;21067;-80
2021/10/01 00:56:11;;;;;;;17.23;7.75;;;;;;;6.25;78.44;102417.92;1643117;86;21754;-81
2021/10/01 00:58:38;;;;;;;12.40;7.30;;;;;;;6.23;78.45;102423.04;1673814;85;21285;-81
2021/10/01 01:01:09;;;;;;;11.83;7.62;;;;;;;6.22;78.54;102423.86;1642621;86;21086;-81
2021/10/01 01:03:42;;;;;;;15.35;7.55;;;;;;;6.22;78.60;102414.30;1643266;87;21904;-81
2021/10/01 01:06:36;;;;;;;15.55;7.78;;;;;;;6.21;78.61;102416.80;1674467;84;21090;-81
2021/10/01 01:09:13;;;;;;;12.13;7.28;;;;;;;6.20;78.73;102422.44;1674233;84;21244;-81
2021/10/01 01:12:08;;;;;;;19.70;7.70;;;;;;;6.20;78.77;102421.54;1674009;85;21150;-80
2021/10/01 01:14:55;;;;;;;13.72;7.47;;;;;;;6.18;78.79;102412.28;1643314;86;21623;-81
2021/10/01 01:18:01;;;;;;;11.35;6.70;;;;;;;6.16;78.67;102416.49;1643386;86;21097;-81
2021/10/01 01:20:42;;;;;;;18.37;7.15;;;;;;;6.16;78.77;102424.34;1659239;85;21102;-81
2021/10/01 01:23:57;;;;;;;13.40;7.15;;;;;;;6.16;78.83;102421.72;1661424;84;22629;-81
2021/10/01 01:27:08;;;;;;;14.87;6.97;;;;;;;6.15;78.87;102424.23;1673562;85;21043;-81
2021/10/01 01:29:51;;;;;;;9.23;6.50;;;;;;;6.14;78.86;102433.78;1673491;84;21568;-83
2021/10/01 01:32:21;;;;;;;14.33;7.00;;;;;;;6.11;78.69;102428.74;1672895;84;21735;-82
2021/10/01 01:34:58;;;;;;;9.90;6.80;;;;;;;6.06;78.62;102427.09;1642618;86;21081;-82
2021/10/01 01:37:40;;;;;;;15.08;7.10;;;;;;;6.01;78.68;102421.97;1628367;87;21792;-83
2021/10/01 01:40:12;;;;;;;11.80;6.50;;;;;;;5.99;78.75;102428.39;1642295;87;21134;-82
2021/10/01 01:42:41;;;;;;;15.32;6.70;;;;;;;5.97;78.72;102431.30;1642753;87;21722;-82
2021/10/01 01:45:09;;;;;;;13.55;7.60;;;;;;;5.96;78.73;102423.34;1642931;87;21097;-82
2021/10/01 01:47:36;;;;;;;12.10;6.87;;;;;;;5.93;78.81;102417.47;1642732;86;21082;-82
2021/10/01 01:50:07;;;;;;;10.25;5.97;;;;;;;5.94;78.85;102424.91;1673549;85;22552;-82
2021/10/01 01:52:32;;;;;;;11.05;6.83;;;;;;;5.88;78.79;102416.23;1672900;85;21122;-81
2021/10/01 01:54:59;;;;;;;13.90;6.62;;;;;;;5.90;78.84;102420.27;1673486;85;21089;-82
2021/10/01 01:57:26;;;;;;;12.55;7.65;;;;;;;5.89;78.96;102418.03;1673543;84;21050;-82
2021/10/01 01:59:53;;;;;;;17.35;7.62;;;;;;;5.79;78.93;102403.41;1631588;85;21097;-82
2021/10/01 02:02:20;;;;;;;12.10;6.75;;;;;;;5.85;78.96;102418.20;1654076;85;21724;-82
2021/10/01 02:04:46;;;;;;;11.53;7.58;;;;;;;5.84;79.02;102418.12;1673398;84;21158;-82
2021/10/01 02:07:14;;;;;;;13.60;7.25;;;;;;;5.84;79.16;102411.59;1654570;85;21560;-82
2021/10/01 02:09:41;;;;;;;15.08;7.25;;;;;;;5.84;79.25;102415.52;1673844;85;21592;-81
2021/10/01 02:12:08;;;;;;;10.75;7.00;;;;;;;5.85;79.31;102414.29;1673966;85;21094;-81
2021/10/01 02:14:41;;;;;;;14.80;7.33;;;;;;;5.85;79.36;102419.92;1631659;85;21075;-81
2021/10/01 02:17:08;;;;;;;11.38;6.62;;;;;;;5.85;79.47;102418.62;1673940;84;21257;-81
2021/10/01 02:19:35;;;;;;;13.88;6.87;;;;;;;5.85;79.51;102418.20;1673853;85;21043;-81
2021/10/01 02:22:02;;;;;;;16.82;7.60;;;;;;;5.85;79.53;102418.20;1674015;84;21094;-81
2021/10/01 02:24:29;;;;;;;11.78;6.83;;;;;;;5.84;79.53;102422.95;1673916;85;21129;-81
2021/10/01 02:27:24;;;;;;;15.40;7.25;;;;;;;5.84;79.54;102419.44;1643303;86;21772;-81
2021/10/01 02:29:56;;;;;;;9.43;6.65;;;;;;;5.84;79.54;102418.12;1673755;85;21601;-81
2021/10/01 02:32:44;;;;;;;12.28;6.92;;;;;;;5.80;79.44;102420.92;1673952;84;21106;-81
2021/10/01 02:35:12;;;;;;;12.40;6.78;;;;;;;5.80;79.51;102428.76;1652381;86;21174;-81
2021/10/01 02:37:38;;;;;;;15.85;8.03;;;;;;;5.80;79.55;102425.22;1652537;86;21282;-81
2021/10/01 02:40:07;;;;;;;13.30;7.50;;;;;;;5.80;79.58;102422.60;1652552;86;21794;-81
2021/10/01 02:42:34;;;;;;;11.22;7.00;;;;;;;5.79;79.55;102425.63;1652529;86;21069;-81
2021/10/01 02:45:01;;;;;;;13.10;7.25;;;;;;;5.77;79.54;102421.09;1652695;85;21596;-80
2021/10/01 02:47:30;;;;;;;13.20;6.92;;;;;;;5.75;79.56;102422.29;1652480;86;21325;-80
2021/10/01 02:49:59;;;;;;;12.58;7.15;;;;;;;5.75;79.60;102423.59;1631531;86;21116;-81
2021/10/01 02:52:58;;;;;;;14.63;7.87;;;;;;;5.75;79.57;102422.70;1631665;86;21999;-81
2021/10/01 02:55:43;;;;;;;13.80;7.83;;;;;;;5.73;79.53;102422.58;1652316;86;21094;-81
2021/10/01 02:58:26;;;;;;;15.60;8.03;;;;;;;5.71;79.60;102426.80;1652484;86;21069;-81
2021/10/01 03:00:54;;;;;;;19.30;7.35;;;;;;;5.70;79.71;102419.73;1650075;86;21661;-81
2021/10/01 03:03:24;;;;;;;10.23;6.65;;;;;;;5.70;79.76;102421.45;1652431;86;21073;-81
2021/10/01 03:05:53;;;;;;;10.28;6.25;;;;;;;5.71;79.75;102424.59;1652139;86;21731;-82
2021/10/01 03:08:21;;;;;;;14.35;7.20;;;;;;;5.68;79.56;102420.03;1651639;86;21077;-81
2021/10/01 03:10:49;;;;;;;10.75;6.42;;;;;;;5.65;79.59;102418.12;1609938;86;21133;-82
2021/10/01 03:13:19;;;;;;;10.82;6.40;;;;;;;5.63;79.56;102413.19;1652192;86;21067;-82
2021/10/01 03:15:45;;;;;;;9.58;6.12;;;;;;;5.64;79.68;102410.16;1631766;86;21168;-81
2021/10/01 03:18:12;;;;;;;10.55;6.62;;;;;;;5.64;79.59;102414.08;1652435;86;21199;-81
2021/10/01 03:20:39;;;;;;;12.78;6.28;;;;;;;5.61;79.52;102416.09;1652461;86;21097;-81
2021/10/01 03:23:07;;;;;;;14.95;6.53;;;;;;;5.59;79.55;102418.06;1652420;86;21105;-81
2021/10/01 03:25:34;;;;;;;11.75;6.50;;;;;;;5.56;79.50;102413.53;1652559;86;21574;-81
2021/10/01 03:28:01;;;;;;;11.28;6.85;;;;;;;5.53;79.48;102407.18;1652376;85;21112;-81
2021/10/01 03:30:27;;;;;;;11.08;6.60;;;;;;;5.52;79.52;102406.66;1652535;86;21748;-81
2021/10/01 03:32:54;;;;;;;12.60;6.65;;;;;;;5.42;79.58;102383.83;1652185;85;21063;-81
2021/10/01 03:35:21;;;;;;;18.82;8.03;;;;;;;5.51;79.59;102402.25;1647010;86;21118;-81
2021/10/01 03:37:48;;;;;;;15.25;7.83;;;;;;;5.49;79.59;102404.74;1647189;87;21097;-81
2021/10/01 03:40:14;;;;;;;17.25;8.58;;;;;;;5.49;79.56;102401.23;1647382;86;21643;-81
2021/10/01 03:42:41;;;;;;;11.12;7.55;;;;;;;5.48;79.57;102391.56;1647227;86;21856;-82
2021/10/01 03:45:10;;;;;;;12.88;7.65;;;;;;;5.48;79.54;102395.48;1647464;85;21050;-82
2021/10/01 03:47:39;;;;;;;13.50;7.15;;;;;;;5.45;79.51;102387.94;1657964;85;21049;-82
2021/10/01 03:50:11;;;;;;;11.68;7.53;;;;;;;5.43;79.61;102383.42;1685144;84;21057;-81
2021/10/01 03:52:37;;;;;;;13.70;8.20;;;;;;;5.42;79.54;102390.73;1647193;86;21124;-81
2021/10/01 03:55:06;;;;;;;12.30;7.58;;;;;;;5.40;79.51;102392.33;1647134;87;21778;-81
2021/10/01 03:57:35;;;;;;;12.53;7.15;;;;;;;5.37;79.53;102393.02;1647248;86;21069;-81
2021/10/01 04:00:06;;;;;;;11.22;6.78;;;;;;;5.36;79.61;102392.50;1647277;87;21070;-83
2021/10/01 04:02:33;;;;;;;10.88;5.95;;;;;;;5.34;79.72;102391.48;1652888;85;21097;-82
2021/10/01 04:05:03;;;;;;;11.78;6.42;;;;;;;5.33;79.77;102392.30;1647215;86;21133;-83
2021/10/01 04:07:32;;;;;;;12.55;6.80;;;;;;;5.34;79.86;102398.02;1646709;86;21784;-83
2021/10/01 04:09:57;;;;;;;11.03;7.17;;;;;;;5.32;79.81;102393.48;1646801;86;21141;-81
2021/10/01 04:12:24;;;;;;;13.32;7.08;;;;;;;5.30;79.83;102395.98;1646986;86;21077;-81
2021/10/01 04:14:50;;;;;;;12.95;7.00;;;;;;;5.30;79.91;102397.70;1647198;86;21085;-80
2021/10/01 04:17:18;;;;;;;14.33;8.23;;;;;;;5.29;80.02;102392.84;1647033;86;21057;-81
2021/10/01 04:19:45;;;;;;;12.90;6.70;;;;;;;5.29;80.03;102400.67;1647187;86;21772;-78
2021/10/01 04:22:11;;;;;;;13.25;6.78;;;;;;;5.30;80.07;102399.00;1627607;87;21105;-77
2021/10/01 04:24:41;;;;;;;17.15;7.90;;;;;;;5.30;80.01;102395.98;1647293;86;21510;-86
2021/10/01 04:27:07;;;;;;;14.93;7.72;;;;;;;5.29;80.08;102405.00;1647048;86;21038;-84
2021/10/01 04:29:33;;;;;;;14.70;6.42;;;;;;;5.28;80.16;102405.81;1647457;87;21085;-80
2021/10/01 04:32:04;;;;;;;14.53;7.08;;;;;;;5.30;80.30;102399.89;1647523;86;21929;-81
2021/10/01 04:34:33;;;;;;;12.30;7.17;;;;;;;5.31;80.30;102399.48;1646967;85;21126;-84
2021/10/01 04:36:59;;;;;;;11.90;6.75;;;;;;;5.30;80.31;102395.98;1647146;86;21085;-83
2021/10/01 04:39:27;;;;;;;13.58;7.50;;;;;;;5.31;80.33;102398.19;1627527;87;21081;-83
2021/10/01 04:41:54;;;;;;;16.45;8.80;;;;;;;5.30;80.32;102393.37;1647598;86;21694;-84
2021/10/01 04:44:25;;;;;;;13.88;7.33;;;;;;;5.32;80.42;102393.48;1627678;87;21128;-82
2021/10/01 04:46:52;;;;;;;15.38;7.72;;;;;;;5.34;80.39;102392.79;1647566;87;21022;-81
2021/10/01 04:49:19;;;;;;;9.68;6.78;;;;;;;5.34;80.32;102393.20;1647567;86;21073;-79
2021/10/01 04:51:45;;;;;;;15.83;7.55;;;;;;;5.35;80.32;102390.70;1647126;86;21524;-80
2021/10/01 04:54:14;;;;;;;13.00;7.37;;;;;;;5.35;80.32;102387.16;1647431;87;21077;-81
2021/10/01 04:56:41;;;;;;;12.55;6.78;;;;;;;5.36;80.31;102388.98;1647389;87;22538;-82
2021/10/01 04:59:10;;;;;;;12.98;7.05;;;;;;;5.38;80.32;102396.53;1647026;87;21145;-83
2021/10/01 05:01:37;;;;;;;15.48;7.95;;;;;;;5.36;80.26;102391.19;1628188;85;21082;-82
2021/10/01 05:04:04;;;;;;;15.38;7.03;;;;;;;5.37;80.19;102394.33;1647446;86;21130;-83
2021/10/01 05:06:31;;;;;;;12.50;6.92;;;;;;;5.39;80.27;102399.67;1647760;87;21077;-83
2021/10/01 05:08:57;;;;;;;18.82;7.28;;;;;;;5.43;80.42;102398.68;1647492;86;21780;-82
2021/10/01 05:11:24;;;;;;;15.03;8.35;;;;;;;5.49;80.47;102406.05;1647600;85;21090;-83
2021/10/01 05:13:51;;;;;;;13.75;8.88;;;;;;;5.55;80.50;102405.58;1649757;85;21812;-84
2021/10/01 05:16:18;;;;;;;10.55;7.00;;;;;;;5.62;80.56;102411.77;1686226;84;21163;-83
2021/10/01 05:18:44;;;;;;;11.22;7.33;;;;;;;5.68;80.59;102403.45;1685811;83;21143;-83
2021/10/01 05:21:11;;;;;;;12.15;6.72;;;;;;;5.76;80.58;102408.81;1685805;83;21801;-84
2021/10/01 05:23:38;;;;;;;12.60;6.42;;;;;;;5.82;80.56;102410.17;1685899;84;21128;-84
2021/10/01 05:26:05;;;;;;;15.43;7.53;;;;;;;5.89;80.53;102412.80;1658649;85;21072;-84
2021/10/01 05:28:31;;;;;;;19.10;9.58;;;;;;;5.95;80.43;102408.06;1686021;84;21053;-83
2021/10/01 05:30:58;;;;;;;17.07;8.88;;;;;;;6.00;80.45;102411.89;1685935;84;21638;-83
2021/10/01 05:33:25;;;;;;;15.85;8.60;;;;;;;6.10;80.52;102416.45;1685800;84;21730;-84
2021/10/01 05:35:51;;;;;;;15.48;6.97;;;;;;;6.17;80.56;102413.47;1712272;82;21031;-84
2021/10/01 05:38:18;;;;;;;18.85;10.23;;;;;;;6.27;80.61;102418.55;1713455;82;21065;-84
2021/10/01 05:40:45;;;;;;;35.68;17.15;;;;;;;6.36;80.62;102418.26;1713618;83;21615;-84
2021/10/01 05:43:14;;;;;;;41.30;17.90;;;;;;;6.46;80.71;102423.34;1713645;83;21578;-84
2021/10/01 05:45:40;;;;;;;22.87;13.03;;;;;;;6.56;80.70;102417.02;1681546;84;21780;-84
2021/10/01 05:48:07;;;;;;;38.55;20.05;;;;;;;6.66;80.70;102422.47;1713561;83;21097;-83
2021/10/01 05:50:36;;;;;;;36.17;21.12;;;;;;;6.76;80.70;102422.30;1713680;82;21606;-84
2021/10/01 05:53:07;;;;;;;41.35;21.42;;;;;;;6.86;80.66;102422.10;1713613;82;21118;-84
2021/10/01 05:55:34;;;;;;;39.27;20.80;;;;;;;6.97;80.62;102423.72;1713767;81;21030;-84
2021/10/01 05:58:01;;;;;;;32.00;16.25;;;;;;;7.07;80.58;102420.41;1713483;83;22578;-84
2021/10/01 06:00:28;;;;;;;42.88;21.20;;;;;;;7.17;80.54;102417.19;1713443;83;21089;-84
2021/10/01 06:02:55;;;;;;;41.48;21.12;;;;;;;7.28;80.51;102423.14;1713382;83;21583;-83
2021/10/01 06:05:22;;;;;;;38.90;17.60;;;;;;;7.39;80.47;102422.13;1713411;83;21073;-84
2021/10/01 06:07:49;;;;;;;23.47;11.73;;;;;;;7.48;80.45;102428.34;1681496;84;21149;-84
2021/10/01 06:10:15;;;;;;;30.23;16.37;;;;;;;7.58;80.39;102424.21;1713434;82;21755;-84
2021/10/01 06:12:42;;;;;;;26.87;14.80;;;;;;;7.70;80.38;102425.80;1713395;83;21085;-83
2021/10/01 06:15:09;;;;;;;25.85;12.65;;;;;;;7.80;80.26;102428.17;1713442;83;21046;-84
2021/10/01 06:17:36;;;;;;;33.33;15.70;;;;;;;7.88;80.11;102425.66;1713491;82;21085;-84
2021/10/01 06:20:06;;;;;;;40.55;19.42;;;;;;;7.98;80.07;102422.78;1713458;83;21058;-84
2021/10/01 06:22:32;;;;;;;43.00;21.45;;;;;;;8.08;80.01;102415.08;1713843;82;21791;-86
2021/10/01 06:24:59;;;;;;;40.48;19.25;;;;;;;8.21;80.00;102425.02;1713692;82;21081;-83
2021/10/01 06:27:26;;;;;;;44.42;21.00;;;;;;;8.31;79.95;102419.52;1713808;82;21109;-84
2021/10/01 06:29:54;;;;;;;36.73;19.67;;;;;;;8.41;79.79;102421.90;1713872;83;21043;-84
2021/10/01 06:32:21;;;;;;;39.38;18.40;;;;;;;8.51;79.76;102418.14;1713871;83;21054;-84
2021/10/01 06:34:48;;;;;;;21.42;12.00;;;;;;;8.61;79.74;102421.80;1713589;83;21831;-84
2021/10/01 06:37:16;;;;;;;15.83;8.33;;;;;;;8.73;79.75;102419.02;1713755;83;21597;-85
2021/10/01 06:39:42;;;;;;;17.67;8.88;;;;;;;8.84;79.70;102423.56;1713332;83;21073;-84
2021/10/01 06:42:12;;;;;;;18.35;8.55;;;;;;;8.94;79.67;102417.64;1684534;83;21030;-84
2021/10/01 06:44:42;;;;;;;20.85;7.53;;;;;;;9.06;79.65;102416.55;1713465;83;21100;-84
2021/10/01 06:47:12;;;;;;;19.55;11.08;;;;;;;9.18;79.63;102416.34;1713417;83;21189;-84
2021/10/01 06:49:43;;;;;;;27.87;13.60;;;;;;;9.29;79.66;102410.91;1713003;82;21531;-84
2021/10/01 08:19:44;;;;;;;14.73;7.60;;;;;;;12.31;75.13;102397.58;1713845;82;21086;-83
2021/10/01 08:22:13;;;;;;;14.00;6.53;;;;;;;12.38;74.95;102402.30;1713702;83;21726;-83
2021/10/01 08:24:40;;;;;;;12.37;6.20;;;;;;;12.42;74.58;102401.59;1713736;83;22264;-82
2021/10/01 08:27:07;;;;;;;10.55;6.67;;;;;;;12.45;74.34;102397.35;1713817;82;21077;-82
2021/10/01 08:29:34;;;;;;;11.85;6.60;;;;;;;12.50;74.19;102396.64;1713714;82;21136;-82
2021/10/01 08:32:03;;;;;;;10.90;6.47;;;;;;;12.54;74.06;102400.83;1713647;82;21073;-82
2021/10/01 08:34:37;;;;;;;11.45;6.25;;;;;;;12.61;73.97;102400.26;1713484;83;21722;-83
2021/10/01 08:37:04;;;;;;;12.73;6.15;;;;;;;12.66;73.91;102392.52;1718832;83;21540;-82
2021/10/01 08:39:31;;;;;;;10.72;6.90;;;;;;;12.73;73.64;102391.94;1719013;83;21092;-82
2021/10/01 08:41:58;;;;;;;13.05;6.72;;;;;;;12.80;73.55;102394.41;1718826;82;21532;-82
2021/10/01 08:44:32;;;;;;;13.98;7.28;;;;;;;12.85;73.40;102399.48;1718976;82;21074;-83
2021/10/01 08:47:00;;;;;;;14.83;8.15;;;;;;;12.91;73.24;102394.87;1718948;82;21758;-83
2021/10/01 08:49:27;;;;;;;13.22;7.35;;;;;;;12.97;72.99;102396.44;1718866;82;21057;-83
2021/10/01 08:51:54;;;;;;;12.60;7.20;;;;;;;13.00;72.87;102393.50;1718673;83;21085;-83
2021/10/01 08:54:20;;;;;;;14.73;7.12;;;;;;;13.05;72.74;102392.81;1718872;83;21118;-83
2021/10/01 08:56:47;;;;;;;15.08;8.00;;;;;;;13.12;72.83;102390.48;1718866;83;21069;-83
2021/10/01 08:59:14;;;;;;;12.53;7.03;;;;;;;13.20;72.57;102394.33;1718168;83;22541;-83
2021/10/01 09:01:42;;;;;;;13.32;6.20;;;;;;;13.29;72.57;102389.84;1714928;82;21094;-83
2021/10/01 09:04:11;;;;;;;14.35;6.65;;;;;;;13.37;72.28;102387.10;1715943;82;21146;-83
2021/10/01 09:06:37;;;;;;;10.65;6.22;;;;;;;13.43;72.09;102390.41;1715968;83;21142;-83
2021/10/01 09:09:09;;;;;;;12.95;6.35;;;;;;;13.51;72.05;102388.95;1715855;83;21619;-83
2021/10/01 09:11:40;;;;;;;12.88;6.05;;;;;;;13.61;71.83;102380.98;1715728;82;21149;-83
2021/10/01 09:14:09;;;;;;;15.08;5.70;;;;;;;13.69;71.62;102379.52;1715719;82;21110;-83
2021/10/01 09:16:37;;;;;;;13.32;6.25;;;;;;;13.77;71.42;102387.32;1715842;82;21099;-83
2021/10/01 09:19:05;;;;;;;9.05;4.78;;;;;;;13.86;71.28;102380.59;1715816;82;21142;-83
2021/10/01 09:21:39;;;;;;;11.20;5.62;;;;;;;13.93;70.99;102383.52;1715832;83;21125;-83
2021/10/01 09:24:09;;;;;;;12.37;5.10;;;;;;;13.98;70.75;102381.95;1713780;83;21813;-83
2021/10/01 09:26:35;;;;;;;12.37;5.37;;;;;;;14.04;70.71;102379.96;1715597;83;21377;-83
2021/10/01 09:29:15;;;;;;;10.55;5.87;;;;;;;14.13;70.51;102380.70;1715812;83;21632;-83
2021/10/01 09:31:47;;;;;;;12.03;5.08;;;;;;;14.20;70.45;102382.73;1714956;82;21774;-83
2021/10/01 09:34:17;;;;;;;12.60;5.20;;;;;;;14.28;70.12;102383.89;1715938;83;21545;-83
2021/10/01 09:36:43;;;;;;;10.40;4.58;;;;;;;14.36;70.08;102381.12;1688978;82;22634;-83
2021/10/01 09:39:28;;;;;;;13.65;5.28;;;;;;;14.46;69.91;102375.71;1690399;83;21174;-83
2021/10/01 09:41:57;;;;;;;9.78;4.08;;;;;;;14.52;69.81;102373.27;1710076;83;21091;-83
2021/10/01 09:44:27;;;;;;;8.03;4.10;;;;;;;14.62;69.44;102369.24;1710708;83;21245;-83
2021/10/01 09:46:54;;;;;;;9.15;4.67;;;;;;;14.69;69.17;102375.64;1710433;83;21914;-83
2021/10/01 09:49:30;;;;;;;12.18;5.20;;;;;;;14.74;69.01;102367.42;1710470;83;21736;-83
2021/10/01 09:51:57;;;;;;;10.75;5.37;;;;;;;14.81;68.85;102369.44;1710500;82;21084;-83
2021/10/01 09:54:26;;;;;;;10.85;4.60;;;;;;;14.84;68.71;102372.17;1710605;83;21048;-83
2021/10/01 09:56:54;;;;;;;11.93;5.00;;;;;;;14.91;68.63;102370.64;1710743;83;21098;-83
2021/10/01 09:59:23;;;;;;;8.43;3.67;;;;;;;14.96;68.41;102363.75;1710552;83;21083;-84
2021/10/01 10:02:12;;;;;;;9.90;4.72;;;;;;;15.02;68.12;102355.98;1710285;82;21792;-83
2021/10/01 10:04:52;;;;;;;22.30;11.40;;;;;;;15.07;67.87;102356.11;1710530;83;21133;-83
2021/10/01 10:07:21;;;;;;;17.70;8.48;;;;;;;15.11;67.52;102350.98;1710534;82;21110;-81
2021/10/01 10:09:52;;;;;;;17.30;8.10;;;;;;;15.18;67.35;102349.41;1710622;82;21613;-82
2021/10/01 10:12:35;;;;;;;14.68;5.67;;;;;;;15.25;67.24;102343.88;1710531;82;21106;-82
2021/10/01 10:15:07;;;;;;;10.15;4.65;;;;;;;15.31;66.88;102340.08;1710774;83;21742;-82
2021/10/01 10:17:34;;;;;;;10.40;4.35;;;;;;;15.36;66.74;102335.39;1710561;83;21087;-82
2021/10/01 10:20:01;;;;;;;10.20;4.17;;;;;;;15.43;66.57;102332.91;1710553;83;21098;-82
2021/10/01 10:22:30;;;;;;;10.98;4.33;;;;;;;15.46;66.30;102334.34;1710611;82;21103;-82
2021/10/01 10:24:57;;;;;;;8.45;3.27;;;;;;;15.47;66.04;102330.42;1710599;82;21154;-82
2021/10/01 10:27:25;;;;;;;6.97;4.08;;;;;;;15.48;65.82;102329.55;1710671;83;21764;-82
2021/10/01 10:29:53;;;;;;;6.25;3.50;;;;;;;15.52;65.76;102331.86;1710531;83;21325;-82
2021/10/01 10:32:23;;;;;;;10.38;4.55;;;;;;;15.56;65.75;102328.48;1710796;83;21095;-82
2021/10/01 10:34:55;;;;;;;5.87;3.37;;;;;;;15.60;65.56;102322.40;1710737;83;21244;-82
2021/10/01 10:37:40;;;;;;;8.95;3.33;;;;;;;15.65;65.39;102319.86;1714997;82;21051;-82
2021/10/01 10:40:10;;;;;;;7.70;2.90;;;;;;;15.70;65.21;102314.27;1715724;83;21785;-82
2021/10/01 10:42:39;;;;;;;7.72;3.27;;;;;;;15.73;64.99;102309.98;1715585;82;21111;-83
2021/10/01 10:45:25;;;;;;;8.18;3.95;;;;;;;15.79;64.82;102300.41;1715828;82;21114;-82
2021/10/01 10:48:07;;;;;;;5.10;3.37;;;;;;;15.84;64.64;102302.33;1715539;82;21082;-82
2021/10/01 10:50:44;;;;;;;4.70;2.72;;;;;;;15.88;64.42;102301.99;1715291;82;21122;-82
2021/10/01 10:53:21;;;;;;;6.67;3.25;;;;;;;15.92;64.19;102295.91;1695542;83;21820;-82
2021/10/01 10:56:07;;;;;;;10.63;2.92;;;;;;;15.93;64.00;102301.27;1715152;83;21118;-81
2021/10/01 10:58:38;;;;;;;8.15;3.40;;;;;;;15.97;63.78;102298.23;1715653;83;21157;-82
2021/10/01 11:01:25;;;;;;;6.67;3.02;;;;;;;15.99;63.61;102291.64;1715578;83;21086;-83
2021/10/01 11:03:48;;;;;;;7.20;2.92;;;;;;;16.02;63.61;102292.62;1714133;82;21126;-83
2021/10/01 11:06:15;;;;;;;5.72;3.17;;;;;;;16.08;63.32;102290.56;1715725;82;21728;-82
2021/10/01 11:08:45;;;;;;;7.58;3.70;;;;;;;16.09;63.14;102287.95;1695271;83;21352;-82
2021/10/01 11:11:35;;;;;;;6.80;4.35;;;;;;;16.12;62.91;102282.74;1714908;83;21742;-82
2021/10/01 11:14:20;;;;;;;11.00;3.20;;;;;;;16.16;62.98;102282.80;1711379;82;21122;-82
2021/10/01 11:17:01;;;;;;;5.60;3.08;;;;;;;16.22;62.84;102286.53;1716008;82;21161;-80
2021/10/01 11:19:49;;;;;;;7.95;5.15;;;;;;;16.24;62.63;102279.94;1705458;82;21851;-79
2021/10/01 11:22:35;;;;;;;7.25;2.98;;;;;;;16.30;62.39;102276.98;1715650;82;21035;-81
2021/10/01 11:25:07;;;;;;;12.93;8.98;;;;;;;16.37;62.12;102278.47;1715309;82;21157;-80
2021/10/01 11:27:37;;;;;;;8.08;3.58;;;;;;;16.40;62.03;102270.58;1713861;83;21178;-86
2021/10/01 11:30:11;;;;;;;10.85;3.50;;;;;;;16.48;61.96;102275.69;1612204;88;21121;-83
2021/10/01 11:32:37;;;;;;;7.90;4.30;;;;;;;16.52;61.64;102269.58;1584904;90;22800;-83
2021/10/01 11:35:06;;;;;;;6.67;2.35;;;;;;;16.58;61.56;102265.73;1613002;88;21117;-83
2021/10/01 11:37:45;;;;;;;7.45;2.98;;;;;;;16.67;61.55;102267.73;1576966;90;21283;-83
2021/10/01 11:40:27;;;;;;;5.85;2.90;;;;;;;16.75;61.21;102271.45;1575941;90;21145;-82
2021/10/01 11:42:56;;;;;;;7.20;3.08;;;;;;;16.79;60.96;102264.02;1599345;89;21777;-82
2021/10/01 11:45:29;;;;;;;7.83;3.85;;;;;;;16.83;60.66;102261.92;1614875;88;21783;-82
2021/10/01 11:48:05;;;;;;;12.18;6.55;;;;;;;16.86;60.67;102260.67;1576074;90;21189;-82
2021/10/01 11:50:44;;;;;;;21.05;9.50;;;;;;;16.92;60.36;102256.37;1575874;90;21587;-82
2021/10/01 11:53:26;;;;;;;13.08;3.65;;;;;;;16.97;60.17;102257.34;1599523;89;21170;-82
2021/10/01 11:55:58;;;;;;;5.37;2.58;;;;;;;16.99;59.79;102249.89;1598767;89;21103;-83
2021/10/01 11:58:26;;;;;;;14.23;5.47;;;;;;;17.01;59.54;102247.27;1575976;89;21751;-82
2021/10/01 12:00:53;;;;;;;6.60;3.27;;;;;;;17.02;59.23;102250.37;1599633;88;21652;-83
2021/10/01 12:03:20;;;;;;;6.55;3.40;;;;;;;17.04;59.15;102251.30;1615962;88;21630;-84
2021/10/01 12:05:49;;;;;;;6.78;2.50;;;;;;;17.04;58.96;102242.92;1576080;90;21898;-83
2021/10/01 12:08:22;;;;;;;5.37;2.60;;;;;;;17.03;58.87;102235.78;1644082;86;21042;-83
2021/10/01 12:10:54;;;;;;;5.85;3.98;;;;;;;17.04;58.89;102232.27;1659554;85;21737;-83
2021/10/01 12:13:28;;;;;;;7.87;4.60;;;;;;;17.06;58.89;102241.19;1710662;83;21057;-84
2021/10/01 12:16:05;;;;;;;5.10;2.90;;;;;;;17.06;58.65;102238.94;1710687;83;21106;-83
2021/10/01 12:18:45;;;;;;;6.30;3.22;;;;;;;17.03;58.51;102233.56;1710725;83;21079;-82
2021/10/01 12:21:20;;;;;;;5.40;3.40;;;;;;;17.00;58.19;102226.84;1710756;82;21114;-83
2021/10/01 12:23:56;;;;;;;4.10;2.37;;;;;;;17.06;58.03;102218.98;1710546;83;22521;-82
2021/10/01 12:26:36;;;;;;;5.25;1.90;;;;;;;17.11;57.82;102217.33;1710425;83;21030;-82
2021/10/01 12:29:15;;;;;;;7.62;2.50;;;;;;;17.13;57.73;102216.03;1710562;82;21128;-83
2021/10/01 12:31:49;;;;;;;4.28;1.90;;;;;;;17.15;57.27;102214.30;1710543;82;21106;-83
2021/10/01 12:34:28;;;;;;;7.08;2.40;;;;;;;17.15;57.45;102211.64;1710571;82;21636;-83
2021/10/01 12:37:11;;;;;;;3.87;1.92;;;;;;;17.19;57.17;102214.83;1712442;82;21772;-83
2021/10/01 12:39:40;;;;;;;10.20;6.25;;;;;;;17.25;57.15;102210.55;1715143;83;21541;-82
2021/10/01 12:42:13;;;;;;;5.60;2.10;;;;;;;17.28;56.86;102197.28;1715388;82;21114;-83
2021/10/01 12:44:42;;;;;;;2.92;1.95;;;;;;;17.26;56.48;102201.67;1715581;83;21095;-82
2021/10/01 12:47:20;;;;;;;5.72;2.22;;;;;;;17.20;56.30;102196.68;1715549;83;21664;-83
2021/10/01 12:50:03;;;;;;;5.53;2.20;;;;;;;17.17;56.14;102189.95;1715600;82;21700;-83
2021/10/01 12:52:30;;;;;;;7.65;2.10;;;;;;;17.14;55.81;102184.15;1715996;83;21192;-83
2021/10/01 12:55:07;;;;;;;4.33;1.75;;;;;;;17.10;55.77;102188.95;1715808;82;21063;-83
2021/10/01 12:57:39;;;;;;;3.70;1.80;;;;;;;17.08;55.70;102186.69;1716038;83;21099;-83
2021/10/01 13:00:09;;;;;;;4.55;2.02;;;;;;;17.06;55.63;102188.39;1715805;83;21129;-83
2021/10/01 13:03:05;;;;;;;4.17;1.87;;;;;;;17.02;55.47;102182.09;1715884;82;22553;-83
2021/10/01 13:05:44;;;;;;;9.03;2.17;;;;;;;16.99;55.54;102177.18;1715487;83;21114;-83
2021/10/01 13:08:17;;;;;;;5.67;2.00;;;;;;;16.99;55.58;102180.73;1715907;82;21098;-84